Time;durP1;ratioP1;P1;durP2;ratioP2;P2;SDS_P1;SDS_P2;PMS_P1;PMS_P2;Temp;Humidity;BMP_temperature;BMP_pressure;BME280_temperature;BME280_humidity;BME280_pressure;Samples;Min_cycle;Max_cycle;Signal;HPM_P1;HPM_P2
2022/08/19 00:01:43;;;;;;;;;;;;;;;;;;4807200;29;19987;-47
2022/08/19 00:04:12;;;;;;;;;;;;;;;;;;4820683;29;19933;-48
2022/08/19 00:06:40;;;;;;;;;;;;;;;;;;4806247;29;19968;-45
2022/08/19 00:09:08;;;;;;;;;;;;;;;;;;4806469;29;19928;-48
2022/08/19 00:11:36;;;;;;;;;;;;;;;;;;4806571;29;20019;-47
2022/08/19 00:14:05;;;;;;;;;;;;;;;;;;4807017;29;19961;-50
2022/08/19 00:16:33;;;;;;;;;;;;;;;;;;4806390;29;20373;-46
2022/08/19 00:19:00;;;;;;;;;;;;;;;;;;4804509;29;20308;-44
2022/08/19 00:21:27;;;;;;;;;;;;;;;;;;4802371;29;19925;-45
2022/08/19 00:23:57;;;;;;;;;;;;;;;;;;4802043;29;19925;-48
2022/08/19 00:26:25;;;;;;;;;;;;;;;;;;4788616;29;20347;-46
2022/08/19 00:28:55;;;;;;;;;;;;;;;;;;4788373;29;20365;-47
2022/08/19 00:31:22;;;;;;;;;;;;;;;;;;4788331;29;20089;-46
2022/08/19 00:33:50;;;;;;;;;;;;;;;;;;4788214;29;19936;-48
2022/08/19 00:36:17;;;;;;;;;;;;;;;;;;4787809;29;19942;-44
2022/08/19 00:38:45;;;;;;;;;;;;;;;;;;4788449;29;19925;-46
2022/08/19 00:41:14;;;;;;;;;;;;;;;;;;4788487;29;20412;-52
2022/08/19 00:43:41;;;;;;;;;;;;;;;;;;4788200;29;19994;-47
2022/08/19 00:46:08;;;;;;;;;;;;;;;;;;4788107;30;19926;-47
2022/08/19 00:48:36;;;;;;;;;;;;;;;;;;4788117;29;19925;-48
2022/08/19 00:51:04;;;;;;;;;;;;;;;;;;4788267;29;19958;-47
2022/08/19 00:53:31;;;;;;;;;;;;;;;;;;4787818;29;19926;-47
2022/08/19 00:55:59;;;;;;;;;;;;;;;;;;4788002;29;19932;-48
2022/08/19 00:58:29;;;;;;;;;;;;;;;;;;4787561;29;19929;-47
2022/08/19 01:00:56;;;;;;;;;;;;;;;;;;4788101;29;20491;-44
2022/08/19 01:03:23;;;;;;;;;;;;;;;;;;4787970;29;19925;-45
2022/08/19 01:05:51;;;;;;;;;;;;;;;;;;4787821;29;19989;-48
2022/08/19 01:08:19;;;;;;;;;;;;;;;;;;4787424;29;20271;-49
2022/08/19 01:10:53;;;;;;;;;;;;;;;;;;4787473;29;19955;-49
2022/08/19 01:13:23;;;;;;;;;;;;;;;;;;4787554;30;19931;-44
2022/08/19 01:15:56;;;;;;;;;;;;;;;;;;4787610;29;19926;-48
2022/08/19 01:18:23;;;;;;;;;;;;;;;;;;4787492;29;20431;-48
2022/08/19 01:20:51;;;;;;;;;;;;;;;;;;4803150;29;20327;-49
2022/08/19 01:23:18;;;;;;;;;;;;;;;;;;4819188;29;19947;-46
2022/08/19 01:25:50;;;;;;;;;;;;;;;;;;4819389;29;20304;-46
2022/08/19 01:28:18;;;;;;;;;;;;;;;;;;4805541;29;19925;-47
2022/08/19 01:30:47;;;;;;;;;;;;;;;;;;4805411;29;19924;-44
2022/08/19 01:33:17;;;;;;;;;;;;;;;;;;4805214;29;19930;-48
2022/08/19 01:35:44;;;;;;;;;;;;;;;;;;4805646;29;19982;-45
2022/08/19 01:38:26;;;;;;;;;;;;;;;;;;4805578;29;19925;-47
2022/08/19 01:40:53;;;;;;;;;;;;;;;;;;4805379;29;19957;-52
2022/08/19 01:43:20;;;;;;;;;;;;;;;;;;4805347;29;20297;-44
2022/08/19 01:45:47;;;;;;;;;;;;;;;;;;4805506;29;19931;-45
2022/08/19 01:48:14;;;;;;;;;;;;;;;;;;4805224;29;20381;-45
2022/08/19 01:50:47;;;;;;;;;;;;;;;;;;4805531;29;19979;-44
2022/08/19 01:53:16;;;;;;;;;;;;;;;;;;4805160;29;20281;-52
2022/08/19 01:55:43;;;;;;;;;;;;;;;;;;4805472;29;19925;-46
2022/08/19 01:58:13;;;;;;;;;;;;;;;;;;4805352;29;20329;-46
2022/08/19 02:00:42;;;;;;;;;;;;;;;;;;4805376;29;19958;-52
2022/08/19 02:03:10;;;;;;;;;;;;;;;;;;4819324;29;20350;-44
2022/08/19 02:05:38;;;;;;;;;;;;;;;;;;4804989;29;20407;-45
2022/08/19 02:08:06;;;;;;;;;;;;;;;;;;4805314;29;20149;-46
2022/08/19 02:10:33;;;;;;;;;;;;;;;;;;4805198;29;20394;-49
2022/08/19 02:13:00;;;;;;;;;;;;;;;;;;4804766;29;20332;-48
2022/08/19 02:15:28;;;;;;;;;;;;;;;;;;4804925;29;20388;-45
2022/08/19 02:17:55;;;;;;;;;;;;;;;;;;4805141;29;20046;-45
2022/08/19 02:20:22;;;;;;;;;;;;;;;;;;4792787;29;20024;-47
2022/08/19 02:22:50;;;;;;;;;;;;;;;;;;4786872;29;19975;-47
2022/08/19 02:25:17;;;;;;;;;;;;;;;;;;4786782;29;19948;-49
2022/08/19 02:27:44;;;;;;;;;;;;;;;;;;4787042;29;19925;-45
2022/08/19 02:30:13;;;;;;;;;;;;;;;;;;4788663;29;19964;-47
2022/08/19 02:32:41;;;;;;;;;;;;;;;;;;4790629;29;19925;-45
2022/08/19 02:35:10;;;;;;;;;;;;;;;;;;4790459;29;20012;-51
2022/08/19 02:40:23;;;;;;;;;;;;;;;;;;4790130;29;20032;-51
2022/08/19 02:42:51;;;;;;;;;;;;;;;;;;4790024;29;19933;-47
2022/08/19 02:45:18;;;;;;;;;;;;;;;;;;4790222;29;20354;-45
2022/08/19 02:47:45;;;;;;;;;;;;;;;;;;4790065;29;20389;-43
2022/08/19 02:50:13;;;;;;;;;;;;;;;;;;4790116;29;19932;-46
2022/08/19 02:52:40;;;;;;;;;;;;;;;;;;4790142;29;19925;-47
2022/08/19 02:55:08;;;;;;;;;;;;;;;;;;4790097;29;19982;-44
2022/08/19 02:57:35;;;;;;;;;;;;;;;;;;4788501;29;20295;-44
2022/08/19 03:00:06;;;;;;;;;;;;;;;;;;4789780;29;19929;-44
2022/08/19 03:02:33;;;;;;;;;;;;;;;;;;4789963;29;20343;-45
2022/08/19 03:05:03;;;;;;;;;;;;;;;;;;4789797;29;19941;-50
2022/08/19 03:07:30;;;;;;;;;;;;;;;;;;4789420;29;20451;-45
2022/08/19 03:09:57;;;;;;;;;;;;;;;;;;4789700;29;19982;-45
2022/08/19 03:12:25;;;;;;;;;;;;;;;;;;4789440;29;19969;-46
2022/08/19 03:14:52;;;;;;;;;;;;;;;;;;4789861;29;20270;-47
2022/08/19 03:17:19;;;;;;;;;;;;;;;;;;4789487;29;20028;-44
2022/08/19 03:19:46;;;;;;;;;;;;;;;;;;4797283;29;19987;-46
2022/08/19 03:22:14;;;;;;;;;;;;;;;;;;4807737;29;19982;-47
2022/08/19 03:24:41;;;;;;;;;;;;;;;;;;4807508;29;19925;-45
2022/08/19 03:27:08;;;;;;;;;;;;;;;;;;4791159;29;19932;-44
2022/08/19 03:29:37;;;;;;;;;;;;;;;;;;4789477;29;19982;-44
2022/08/19 03:32:09;;;;;;;;;;;;;;;;;;4789122;29;20409;-46
2022/08/19 03:34:37;;;;;;;;;;;;;;;;;;4788302;29;19925;-47
2022/08/19 03:37:08;;;;;;;;;;;;;;;;;;4774859;29;19926;-46
2022/08/19 03:39:36;;;;;;;;;;;;;;;;;;4771390;29;19937;-44
2022/08/19 03:42:05;;;;;;;;;;;;;;;;;;4771161;30;19975;-45
2022/08/19 03:44:52;;;;;;;;;;;;;;;;;;4771333;30;19925;-44
2022/08/19 03:47:19;;;;;;;;;;;;;;;;;;4771072;30;19930;-48
2022/08/19 03:49:46;;;;;;;;;;;;;;;;;;4771196;30;19929;-45
2022/08/19 03:52:14;;;;;;;;;;;;;;;;;;4771317;29;19942;-48
2022/08/19 03:54:41;;;;;;;;;;;;;;;;;;4771160;30;20448;-45
2022/08/19 03:57:08;;;;;;;;;;;;;;;;;;4770101;30;19925;-49
2022/08/19 03:59:37;;;;;;;;;;;;;;;;;;4770724;30;19987;-45
2022/08/19 04:02:08;;;;;;;;;;;;;;;;;;4770489;29;19952;-46
2022/08/19 04:04:37;;;;;;;;;;;;;;;;;;4770915;30;19952;-45
2022/08/19 04:07:04;;;;;;;;;;;;;;;;;;4771073;30;19926;-46
2022/08/19 04:09:32;;;;;;;;;;;;;;;;;;4769883;30;19925;-44
2022/08/19 04:11:59;;;;;;;;;;;;;;;;;;4770427;29;19925;-44
2022/08/19 04:14:29;;;;;;;;;;;;;;;;;;4770710;30;20340;-49
2022/08/19 04:16:58;;;;;;;;;;;;;;;;;;4769945;30;19929;-45
2022/08/19 04:19:25;;;;;;;;;;;;;;;;;;4774811;30;19934;-48
2022/08/19 04:21:53;;;;;;;;;;;;;;;;;;4788429;29;20012;-46
2022/08/19 04:24:22;;;;;;;;;;;;;;;;;;4788087;29;19990;-45
2022/08/19 04:26:49;;;;;;;;;;;;;;;;;;4788270;30;19929;-43
2022/08/19 04:29:22;;;;;;;;;;;;;;;;;;4788098;29;20385;-45
2022/08/19 04:31:49;;;;;;;;;;;;;;;;;;4788452;29;19969;-44
2022/08/19 04:34:21;;;;;;;;;;;;;;;;;;4787869;29;19933;-48
2022/08/19 04:36:52;;;;;;;;;;;;;;;;;;4778845;29;20436;-45
2022/08/19 04:39:22;;;;;;;;;;;;;;;;;;4769626;30;19932;-47
2022/08/19 04:44:35;;;;;;;;;;;;;;;;;;4770147;30;19926;-48
2022/08/19 04:47:11;;;;;;;;;;;;;;;;;;4770565;29;19925;-45
2022/08/19 04:49:38;;;;;;;;;;;;;;;;;;4769990;30;20016;-44
2022/08/19 04:52:06;;;;;;;;;;;;;;;;;;4769834;29;20381;-45
2022/08/19 04:54:33;;;;;;;;;;;;;;;;;;4770025;30;19951;-44
2022/08/19 04:57:06;;;;;;;;;;;;;;;;;;4770012;29;19929;-44
2022/08/19 04:59:34;;;;;;;;;;;;;;;;;;4769858;30;19973;-49
2022/08/19 05:02:02;;;;;;;;;;;;;;;;;;4769892;30;19951;-45
2022/08/19 05:04:33;;;;;;;;;;;;;;;;;;4765799;29;19928;-46
2022/08/19 05:07:00;;;;;;;;;;;;;;;;;;4805689;29;19932;-45
2022/08/19 05:09:29;;;;;;;;;;;;;;;;;;4805691;29;20312;-47
2022/08/19 05:12:07;;;;;;;;;;;;;;;;;;4805805;29;19929;-44
2022/08/19 05:14:36;;;;;;;;;;;;;;;;;;4805482;29;19925;-57
2022/08/19 05:17:03;;;;;;;;;;;;;;;;;;4805301;29;19925;-48
2022/08/19 05:22:37;;;;;;;;;;;;;;;;;;4805471;29;19929;-45
2022/08/19 05:25:09;;;;;;;;;;;;;;;;;;4805092;29;19982;-47
2022/08/19 05:27:39;;;;;;;;;;;;;;;;;;4805280;29;19925;-50
2022/08/19 05:30:06;;;;;;;;;;;;;;;;;;4805899;29;20103;-47
2022/08/19 05:32:35;;;;;;;;;;;;;;;;;;4805579;29;19974;-45
2022/08/19 05:35:02;;;;;;;;;;;;;;;;;;4805534;29;19932;-45
2022/08/19 05:37:29;;;;;;;;;;;;;;;;;;4803477;29;20486;-48
2022/08/19 05:39:57;;;;;;;;;;;;;;;;;;4804430;29;20266;-45
2022/08/19 05:42:24;;;;;;;;;;;;;;;;;;4803880;29;19925;-48
2022/08/19 05:44:51;;;;;;;;;;;;;;;;;;4805288;29;19925;-45
2022/08/19 05:47:19;;;;;;;;;;;;;;;;;;4805062;29;20294;-44
2022/08/19 05:49:47;;;;;;;;;;;;;;;;;;4805055;29;19925;-44
2022/08/19 05:52:17;;;;;;;;;;;;;;;;;;4805023;29;19929;-47
2022/08/19 05:54:47;;;;;;;;;;;;;;;;;;4805486;29;20408;-50
2022/08/19 05:57:19;;;;;;;;;;;;;;;;;;4804433;29;20416;-45
2022/08/19 05:59:48;;;;;;;;;;;;;;;;;;4805213;29;19925;-45
2022/08/19 06:02:19;;;;;;;;;;;;;;;;;;4805057;29;20342;-47
2022/08/19 06:04:46;;;;;;;;;;;;;;;;;;4806204;29;19933;-47
2022/08/19 06:07:13;;;;;;;;;;;;;;;;;;4808987;29;20309;-47
2022/08/19 06:09:42;;;;;;;;;;;;;;;;;;4808898;29;19925;-46
2022/08/19 06:12:26;;;;;;;;;;;;;;;;;;4808540;29;19929;-46
2022/08/19 06:14:54;;;;;;;;;;;;;;;;;;4808785;29;19983;-44
2022/08/19 06:17:27;;;;;;;;;;;;;;;;;;4808201;29;19951;-47
2022/08/19 06:19:54;;;;;;;;;;;;;;;;;;4816641;29;20289;-48
2022/08/19 06:22:21;;;;;;;;;;;;;;;;;;4826560;29;19974;-51
2022/08/19 06:24:52;;;;;;;;;;;;;;;;;;4826294;29;19924;-48
2022/08/19 06:27:19;;;;;;;;;;;;;;;;;;4826506;29;19929;-46
2022/08/19 06:29:46;;;;;;;;;;;;;;;;;;4826538;29;20377;-44
2022/08/19 06:32:15;;;;;;;;;;;;;;;;;;4826367;29;19925;-46
2022/08/19 06:34:42;;;;;;;;;;;;;;;;;;4840771;29;19929;-47
2022/08/19 06:37:12;;;;;;;;;;;;;;;;;;4826064;29;19936;-49
2022/08/19 06:39:40;;;;;;;;;;;;;;;;;;4825523;29;19932;-48
2022/08/19 06:42:11;;;;;;;;;;;;;;;;;;4826185;29;19924;-51
2022/08/19 06:44:41;;;;;;;;;;;;;;;;;;4826349;29;19931;-45
2022/08/19 06:47:12;;;;;;;;;;;;;;;;;;4826507;29;19950;-48
2022/08/19 06:49:41;;;;;;;;;;;;;;;;;;4826011;29;19925;-48
2022/08/19 06:52:11;;;;;;;;;;;;;;;;;;4826099;29;19925;-47
2022/08/19 06:54:41;;;;;;;;;;;;;;;;;;4825854;29;19929;-45
2022/08/19 06:57:18;;;;;;;;;;;;;;;;;;4826153;29;20389;-45
2022/08/19 06:59:45;;;;;;;;;;;;;;;;;;4826303;29;19925;-46
2022/08/19 07:02:12;;;;;;;;;;;;;;;;;;4826362;29;20008;-45
2022/08/19 07:04:39;;;;;;;;;;;;;;;;;;4826020;29;19925;-45
2022/08/19 07:07:09;;;;;;;;;;;;;;;;;;4825906;29;20019;-45
2022/08/19 07:09:46;;;;;;;;;;;;;;;;;;4825747;29;20018;-49
2022/08/19 07:12:23;;;;;;;;;;;;;;;;;;4825526;29;19960;-50
2022/08/19 07:14:50;;;;;;;;;;;;;;;;;;4825470;29;20313;-51
2022/08/19 07:17:19;;;;;;;;;;;;;;;;;;4825127;29;19950;-47
2022/08/19 07:19:46;;;;;;;;;;;;;;;;;;4817878;29;19925;-45
2022/08/19 07:22:14;;;;;;;;;;;;;;;;;;4807654;29;19925;-45
2022/08/19 07:24:43;;;;;;;;;;;;;;;;;;4807488;29;19932;-50
2022/08/19 07:27:18;;;;;;;;;;;;;;;;;;4807628;29;20444;-45
2022/08/19 07:29:53;;;;;;;;;;;;;;;;;;4807333;29;19942;-51
2022/08/19 07:32:25;;;;;;;;;;;;;;;;;;4807317;29;19932;-50
2022/08/19 07:34:53;;;;;;;;;;;;;;;;;;4807544;29;20298;-46
2022/08/19 07:37:20;;;;;;;;;;;;;;;;;;4807256;29;20008;-52
2022/08/19 07:39:47;;;;;;;;;;;;;;;;;;4807263;29;19932;-47
2022/08/19 07:42:15;;;;;;;;;;;;;;;;;;4807138;29;19925;-45
2022/08/19 07:44:42;;;;;;;;;;;;;;;;;;4807631;29;20596;-47
2022/08/19 07:47:17;;;;;;;;;;;;;;;;;;4807567;29;20393;-45
2022/08/19 07:50:05;;;;;;;;;;;;;;;;;;4807276;29;20305;-52
2022/08/19 07:52:33;;;;;;;;;;;;;;;;;;4807018;29;20419;-49
2022/08/19 07:55:03;;;;;;;;;;;;;;;;;;4806894;29;19986;-45
2022/08/19 07:57:30;;;;;;;;;;;;;;;;;;4807241;29;19936;-45
2022/08/19 07:59:58;;;;;;;;;;;;;;;;;;4806950;29;19925;-50
2022/08/19 08:02:25;;;;;;;;;;;;;;;;;;4806860;29;19942;-47
2022/08/19 08:10:23;;;;;;;;;;;;;;;;;;4806067;29;19925;-45
2022/08/19 08:12:50;;;;;;;;;;;;;;;;;;4805578;29;19925;-46
2022/08/19 08:15:34;;;;;;;;;;;;;;;;;;4806416;29;19931;-46
2022/08/19 08:18:07;;;;;;;;;;;;;;;;;;4806416;29;19929;-50
2022/08/19 08:20:34;;;;;;;;;;;;;;;;;;4820197;29;19973;-46
2022/08/19 08:25:48;;;;;;;;;;;;;;;;;;4825017;29;19997;-45
2022/08/19 08:28:16;;;;;;;;;;;;;;;;;;4805698;29;19925;-46
2022/08/19 08:30:45;;;;;;;;;;;;;;;;;;4806380;29;20042;-48
2022/08/19 08:33:13;;;;;;;;;;;;;;;;;;4805714;29;19929;-47
2022/08/19 08:35:45;;;;;;;;;;;;;;;;;;4805106;29;19925;-45
2022/08/19 08:38:13;;;;;;;;;;;;;;;;;;4804884;29;19929;-48
2022/08/19 08:40:53;;;;;;;;;;;;;;;;;;4804703;29;19929;-45
2022/08/19 08:43:33;;;;;;;;;;;;;;;;;;4804593;29;19945;-46
2022/08/19 08:46:03;;;;;;;;;;;;;;;;;;4804670;29;20342;-47
2022/08/19 08:48:34;;;;;;;;;;;;;;;;;;4804670;29;19989;-46
2022/08/19 08:51:03;;;;;;;;;;;;;;;;;;4804467;29;19932;-45
2022/08/19 08:53:31;;;;;;;;;;;;;;;;;;4804257;29;19929;-49
2022/08/19 08:56:02;;;;;;;;;;;;;;;;;;4804565;29;19985;-47
2022/08/19 08:58:41;;;;;;;;;;;;;;;;;;4804388;29;19965;-49
2022/08/19 09:01:12;;;;;;;;;;;;;;;;;;4804466;29;19925;-45
2022/08/19 09:03:42;;;;;;;;;;;;;;;;;;4804219;29;19951;-45
2022/08/19 09:06:16;;;;;;;;;;;;;;;;;;4804266;29;19929;-45
2022/08/19 09:08:52;;;;;;;;;;;;;;;;;;4818348;29;20451;-45
2022/08/19 09:11:31;;;;;;;;;;;;;;;;;;4805623;29;19936;-47
2022/08/19 09:14:15;;;;;;;;;;;;;;;;;;4805489;29;19925;-46
2022/08/19 09:17:07;;;;;;;;;;;;;;;;;;4805592;29;19932;-46
2022/08/19 09:19:35;;;;;;;;;;;;;;;;;;4811388;29;19968;-46
2022/08/19 09:22:05;;;;;;;;;;;;;;;;;;4823214;29;20454;-47
2022/08/19 09:24:32;;;;;;;;;;;;;;;;;;4808413;29;19929;-50
2022/08/19 09:26:59;;;;;;;;;;;;;;;;;;4805120;29;20447;-46
2022/08/19 09:29:27;;;;;;;;;;;;;;;;;;4804897;29;19932;-47
2022/08/19 09:31:54;;;;;;;;;;;;;;;;;;4803944;29;19924;-45
2022/08/19 09:34:21;;;;;;;;;;;;;;;;;;4804649;29;19925;-46
2022/08/19 09:36:52;;;;;;;;;;;;;;;;;;4804362;29;19929;-46
2022/08/19 09:39:19;;;;;;;;;;;;;;;;;;4805122;29;20396;-46
2022/08/19 09:41:46;;;;;;;;;;;;;;;;;;4805057;29;20492;-46
2022/08/19 09:44:17;;;;;;;;;;;;;;;;;;4804729;29;19925;-46
2022/08/19 09:46:46;;;;;;;;;;;;;;;;;;4803135;29;19925;-47
2022/08/19 09:49:15;;;;;;;;;;;;;;;;;;4803809;29;19925;-47
2022/08/19 09:51:42;;;;;;;;;;;;;;;;;;4804742;29;20401;-46
2022/08/19 09:54:12;;;;;;;;;;;;;;;;;;4805037;29;20434;-47
2022/08/19 09:56:39;;;;;;;;;;;;;;;;;;4804797;29;20310;-52
2022/08/19 09:59:09;;;;;;;;;;;;;;;;;;4786228;29;19959;-45
2022/08/19 10:01:36;;;;;;;;;;;;;;;;;;4786572;30;20352;-47
2022/08/19 10:04:08;;;;;;;;;;;;;;;;;;4786537;29;20016;-48
2022/08/19 10:06:42;;;;;;;;;;;;;;;;;;4786276;30;19972;-47
2022/08/19 10:09:17;;;;;;;;;;;;;;;;;;4786734;29;19975;-47
2022/08/19 10:11:49;;;;;;;;;;;;;;;;;;4785948;29;19926;-46
2022/08/19 10:14:23;;;;;;;;;;;;;;;;;;4786180;29;20314;-50
2022/08/19 10:16:51;;;;;;;;;;;;;;;;;;4785581;29;19926;-49
2022/08/19 10:19:21;;;;;;;;;;;;;;;;;;4794196;29;20015;-49
2022/08/19 10:21:52;;;;;;;;;;;;;;;;;;4821878;29;19924;-47
2022/08/19 10:24:20;;;;;;;;;;;;;;;;;;4822177;29;20377;-45
2022/08/19 10:26:50;;;;;;;;;;;;;;;;;;4822795;29;19928;-45
2022/08/19 10:29:23;;;;;;;;;;;;;;;;;;4822576;29;19948;-47
2022/08/19 10:32:04;;;;;;;;;;;;;;;;;;4822391;29;20391;-48
2022/08/19 10:34:37;;;;;;;;;;;;;;;;;;4822850;29;19925;-48
2022/08/19 10:37:16;;;;;;;;;;;;;;;;;;4823244;29;19972;-50
2022/08/19 10:39:54;;;;;;;;;;;;;;;;;;4836444;29;19932;-46
2022/08/19 10:42:21;;;;;;;;;;;;;;;;;;4821867;29;20006;-45
2022/08/19 10:44:52;;;;;;;;;;;;;;;;;;4822460;29;19924;-48
2022/08/19 10:47:20;;;;;;;;;;;;;;;;;;4822357;29;19931;-47
2022/08/19 10:52:42;;;;;;;;;;;;;;;;;;4825697;29;19943;-48
2022/08/19 10:58:09;;;;;;;;;;;;;;;;;;4825942;29;19928;-49
2022/08/19 11:00:37;;;;;;;;;;;;;;;;;;4825160;29;19929;-49
2022/08/19 11:03:04;;;;;;;;;;;;;;;;;;4825656;29;20403;-48
2022/08/19 11:05:31;;;;;;;;;;;;;;;;;;4825861;29;19985;-47
2022/08/19 11:08:07;;;;;;;;;;;;;;;;;;4825485;29;19925;-51
2022/08/19 11:10:53;;;;;;;;;;;;;;;;;;4824577;29;19929;-49
2022/08/19 11:13:20;;;;;;;;;;;;;;;;;;4823987;29;20430;-46
2022/08/19 11:15:47;;;;;;;;;;;;;;;;;;4825349;29;19974;-45
2022/08/19 11:18:17;;;;;;;;;;;;;;;;;;4825631;29;19932;-46
2022/08/19 11:20:44;;;;;;;;;;;;;;;;;;4810750;29;20363;-47
2022/08/19 11:23:11;;;;;;;;;;;;;;;;;;4806769;29;20381;-47
2022/08/19 11:25:39;;;;;;;;;;;;;;;;;;4807161;29;19986;-48
2022/08/19 11:28:06;;;;;;;;;;;;;;;;;;4806874;29;20016;-48
2022/08/19 11:30:33;;;;;;;;;;;;;;;;;;4805430;29;19935;-45
2022/08/19 11:33:00;;;;;;;;;;;;;;;;;;4805580;29;19932;-47
2022/08/19 11:35:28;;;;;;;;;;;;;;;;;;4807360;29;19936;-48
2022/08/19 11:37:57;;;;;;;;;;;;;;;;;;4806687;29;19993;-47
2022/08/19 11:40:24;;;;;;;;;;;;;;;;;;4806971;29;19925;-47
2022/08/19 11:42:55;;;;;;;;;;;;;;;;;;4806856;29;20454;-48
2022/08/19 11:45:27;;;;;;;;;;;;;;;;;;4807146;29;19925;-49
2022/08/19 11:47:55;;;;;;;;;;;;;;;;;;4807139;29;19925;-46
2022/08/19 11:50:23;;;;;;;;;;;;;;;;;;4820578;29;19993;-49
2022/08/19 11:52:53;;;;;;;;;;;;;;;;;;4807098;29;19932;-51
2022/08/19 11:55:23;;;;;;;;;;;;;;;;;;4807153;29;20350;-48
2022/08/19 11:57:50;;;;;;;;;;;;;;;;;;4807094;29;19925;-50
2022/08/19 12:00:18;;;;;;;;;;;;;;;;;;4806788;29;20466;-48
2022/08/19 12:02:45;;;;;;;;;;;;;;;;;;4806590;29;19963;-48
2022/08/19 12:05:12;;;;;;;;;;;;;;;;;;4806554;29;20434;-49
2022/08/19 12:07:40;;;;;;;;;;;;;;;;;;4806624;29;19929;-48
2022/08/19 12:10:07;;;;;;;;;;;;;;;;;;4806164;29;20388;-48
2022/08/19 12:12:34;;;;;;;;;;;;;;;;;;4806354;29;19976;-48
2022/08/19 12:15:02;;;;;;;;;;;;;;;;;;4806649;29;19929;-46
2022/08/19 12:17:30;;;;;;;;;;;;;;;;;;4806456;29;19929;-49
2022/08/19 12:19:58;;;;;;;;;;;;;;;;;;4815460;29;19925;-47
2022/08/19 12:22:25;;;;;;;;;;;;;;;;;;4824737;29;19930;-52
2022/08/19 12:24:53;;;;;;;;;;;;;;;;;;4824504;29;20304;-49
2022/08/19 12:27:20;;;;;;;;;;;;;;;;;;4824138;29;19931;-48
2022/08/19 12:30:02;;;;;;;;;;;;;;;;;;4815749;29;20290;-51
2022/08/19 12:32:29;;;;;;;;;;;;;;;;;;4805934;29;19925;-49
2022/08/19 12:34:57;;;;;;;;;;;;;;;;;;4820222;29;20089;-46
2022/08/19 12:37:24;;;;;;;;;;;;;;;;;;4806190;29;19925;-48
2022/08/19 12:39:51;;;;;;;;;;;;;;;;;;4819725;29;19948;-46
2022/08/19 12:42:18;;;;;;;;;;;;;;;;;;4805750;29;19925;-47
2022/08/19 12:44:45;;;;;;;;;;;;;;;;;;4806329;29;19963;-46
2022/08/19 12:47:13;;;;;;;;;;;;;;;;;;4806205;29;19958;-46
2022/08/19 12:49:41;;;;;;;;;;;;;;;;;;4806070;29;19925;-51
2022/08/19 12:52:20;;;;;;;;;;;;;;;;;;4805871;29;20343;-48
2022/08/19 12:54:49;;;;;;;;;;;;;;;;;;4805827;29;20016;-48
2022/08/19 12:57:19;;;;;;;;;;;;;;;;;;4805691;29;19924;-48
2022/08/19 12:59:46;;;;;;;;;;;;;;;;;;4806264;29;19929;-48
2022/08/19 13:02:13;;;;;;;;;;;;;;;;;;4805963;29;19940;-47
2022/08/19 13:04:41;;;;;;;;;;;;;;;;;;4806044;29;19947;-47
2022/08/19 13:07:08;;;;;;;;;;;;;;;;;;4805727;29;19968;-46
2022/08/19 13:09:36;;;;;;;;;;;;;;;;;;4805539;29;19925;-49
2022/08/19 13:12:06;;;;;;;;;;;;;;;;;;4804546;29;19973;-50
2022/08/19 13:14:34;;;;;;;;;;;;;;;;;;4804856;29;19980;-47
2022/08/19 13:17:02;;;;;;;;;;;;;;;;;;4805630;29;19929;-49
2022/08/19 13:19:30;;;;;;;;;;;;;;;;;;4807306;29;19964;-48
2022/08/19 13:21:58;;;;;;;;;;;;;;;;;;4805543;29;19932;-49
2022/08/19 13:24:26;;;;;;;;;;;;;;;;;;4805266;29;20008;-47
2022/08/19 13:26:59;;;;;;;;;;;;;;;;;;4805374;29;19964;-47
2022/08/19 13:34:57;;;;;;;;;;;;;;;;;;4803961;29;19932;-48
2022/08/19 13:37:42;;;;;;;;;;;;;;;;;;4804141;29;19932;-49
2022/08/19 13:40:18;;;;;;;;;;;;;;;;;;4804756;29;19925;-49
2022/08/19 13:42:47;;;;;;;;;;;;;;;;;;4804993;29;19982;-51
2022/08/19 13:45:17;;;;;;;;;;;;;;;;;;4819534;29;19932;-49
2022/08/19 13:47:49;;;;;;;;;;;;;;;;;;4805372;29;19947;-49
2022/08/19 13:50:20;;;;;;;;;;;;;;;;;;4805062;29;19990;-46
2022/08/19 13:52:48;;;;;;;;;;;;;;;;;;4805206;29;19961;-46
2022/08/19 13:55:15;;;;;;;;;;;;;;;;;;4805270;29;19932;-48
2022/08/19 13:57:54;;;;;;;;;;;;;;;;;;4805133;29;19982;-45
2022/08/19 14:00:27;;;;;;;;;;;;;;;;;;4804379;29;19929;-48
2022/08/19 14:02:55;;;;;;;;;;;;;;;;;;4804583;29;19925;-46
2022/08/19 14:05:23;;;;;;;;;;;;;;;;;;4804701;29;19929;-47
2022/08/19 14:07:50;;;;;;;;;;;;;;;;;;4804840;29;19974;-48
2022/08/19 14:10:17;;;;;;;;;;;;;;;;;;4804849;29;20362;-49
2022/08/19 14:12:46;;;;;;;;;;;;;;;;;;4805199;29;20342;-50
2022/08/19 14:15:13;;;;;;;;;;;;;;;;;;4804954;29;19972;-47
2022/08/19 14:17:42;;;;;;;;;;;;;;;;;;4804758;29;19983;-49
2022/08/19 14:20:10;;;;;;;;;;;;;;;;;;4804290;29;19964;-45
2022/08/19 14:22:43;;;;;;;;;;;;;;;;;;4804790;29;19981;-47
2022/08/19 14:25:14;;;;;;;;;;;;;;;;;;4786724;29;19932;-47
2022/08/19 14:27:41;;;;;;;;;;;;;;;;;;4790397;29;19929;-46
2022/08/19 14:30:10;;;;;;;;;;;;;;;;;;4790153;29;19963;-49
2022/08/19 14:32:37;;;;;;;;;;;;;;;;;;4790036;29;19925;-48
2022/08/19 14:35:05;;;;;;;;;;;;;;;;;;4789139;29;19942;-47
2022/08/19 14:37:32;;;;;;;;;;;;;;;;;;4788152;29;19930;-52
2022/08/19 14:40:00;;;;;;;;;;;;;;;;;;4788090;29;19929;-51
2022/08/19 14:42:27;;;;;;;;;;;;;;;;;;4787782;29;19933;-46
2022/08/19 14:44:56;;;;;;;;;;;;;;;;;;4787948;29;19930;-51
2022/08/19 14:47:24;;;;;;;;;;;;;;;;;;4816378;29;20539;-47
2022/08/19 14:49:51;;;;;;;;;;;;;;;;;;4788440;29;19926;-47
2022/08/19 14:52:18;;;;;;;;;;;;;;;;;;4789575;29;20004;-49
2022/08/19 14:54:45;;;;;;;;;;;;;;;;;;4789963;29;19971;-48
2022/08/19 14:57:14;;;;;;;;;;;;;;;;;;4789589;29;19929;-45
2022/08/19 14:59:42;;;;;;;;;;;;;;;;;;4789505;29;19964;-46
2022/08/19 15:02:11;;;;;;;;;;;;;;;;;;4789522;29;20426;-48
2022/08/19 15:04:58;;;;;;;;;;;;;;;;;;4789227;29;19936;-47
2022/08/19 15:07:26;;;;;;;;;;;;;;;;;;4802953;29;20394;-46
2022/08/19 15:09:54;;;;;;;;;;;;;;;;;;4789849;29;19932;-48
2022/08/19 15:12:22;;;;;;;;;;;;;;;;;;4789251;29;19926;-48
2022/08/19 15:14:53;;;;;;;;;;;;;;;;;;4789833;29;19936;-49
2022/08/19 15:17:22;;;;;;;;;;;;;;;;;;4789469;29;19925;-48
2022/08/19 15:19:58;;;;;;;;;;;;;;;;;;4798605;29;19978;-48
2022/08/19 15:22:25;;;;;;;;;;;;;;;;;;4807456;29;19932;-47
2022/08/19 15:24:54;;;;;;;;;;;;;;;;;;4823418;29;20379;-47
2022/08/19 15:27:21;;;;;;;;;;;;;;;;;;4824806;29;20282;-45
2022/08/19 15:29:48;;;;;;;;;;;;;;;;;;4825385;29;19925;-48
2022/08/19 15:32:15;;;;;;;;;;;;;;;;;;4824878;29;19924;-46
2022/08/19 15:34:43;;;;;;;;;;;;;;;;;;4825175;29;19980;-48
2022/08/19 15:37:10;;;;;;;;;;;;;;;;;;4825047;29;20437;-51
2022/08/19 15:39:37;;;;;;;;;;;;;;;;;;4825079;29;20646;-51
2022/08/19 15:42:05;;;;;;;;;;;;;;;;;;4825075;29;20274;-48
2022/08/19 15:44:33;;;;;;;;;;;;;;;;;;4824987;29;19936;-47
2022/08/19 15:47:00;;;;;;;;;;;;;;;;;;4825107;29;19928;-47
2022/08/19 15:49:27;;;;;;;;;;;;;;;;;;4824933;29;19996;-48
2022/08/19 15:51:56;;;;;;;;;;;;;;;;;;4838384;29;20406;-49
2022/08/19 15:54:24;;;;;;;;;;;;;;;;;;4825023;29;19935;-47
2022/08/19 16:07:59;;;;;;;;;;;;;;;;;;4838828;29;20400;-49
2022/08/19 16:10:26;;;;;;;;;;;;;;;;;;4824680;29;19924;-47
2022/08/19 16:12:55;;;;;;;;;;;;;;;;;;4824241;29;19924;-51
2022/08/19 16:15:22;;;;;;;;;;;;;;;;;;4824378;29;19974;-49
2022/08/19 16:17:50;;;;;;;;;;;;;;;;;;4824683;29;20080;-46
2022/08/19 16:20:23;;;;;;;;;;;;;;;;;;4812415;29;20036;-48
2022/08/19 16:22:51;;;;;;;;;;;;;;;;;;4806274;29;19967;-49
2022/08/19 16:25:18;;;;;;;;;;;;;;;;;;4806798;29;19972;-46
2022/08/19 16:27:45;;;;;;;;;;;;;;;;;;4806310;29;19925;-45
2022/08/19 16:30:32;;;;;;;;;;;;;;;;;;4805368;29;19933;-49
2022/08/19 16:32:59;;;;;;;;;;;;;;;;;;4804798;29;19925;-47
2022/08/19 16:35:26;;;;;;;;;;;;;;;;;;4805001;29;19925;-48
2022/08/19 16:37:53;;;;;;;;;;;;;;;;;;4805789;29;20354;-52
2022/08/19 16:40:21;;;;;;;;;;;;;;;;;;4804736;29;20287;-47
2022/08/19 16:42:48;;;;;;;;;;;;;;;;;;4806378;29;20378;-48
2022/08/19 16:45:19;;;;;;;;;;;;;;;;;;4806091;29;19925;-49
2022/08/19 16:47:46;;;;;;;;;;;;;;;;;;4806010;29;19929;-51
2022/08/19 16:50:16;;;;;;;;;;;;;;;;;;4805557;29;20020;-49
2022/08/19 16:52:50;;;;;;;;;;;;;;;;;;4806261;29;19932;-46
2022/08/19 16:55:18;;;;;;;;;;;;;;;;;;4806103;29;19961;-49
2022/08/19 16:57:45;;;;;;;;;;;;;;;;;;4806269;29;20016;-46
2022/08/19 17:00:13;;;;;;;;;;;;;;;;;;4805745;29;19929;-47
2022/08/19 17:02:41;;;;;;;;;;;;;;;;;;4805899;29;20393;-48
2022/08/19 17:05:08;;;;;;;;;;;;;;;;;;4805752;29;19925;-49
2022/08/19 17:07:35;;;;;;;;;;;;;;;;;;4805849;29;19974;-47
2022/08/19 17:10:03;;;;;;;;;;;;;;;;;;4805612;29;19929;-50
2022/08/19 17:12:30;;;;;;;;;;;;;;;;;;4805599;29;19925;-49
2022/08/19 17:14:59;;;;;;;;;;;;;;;;;;4805721;29;20334;-48
2022/08/19 17:17:27;;;;;;;;;;;;;;;;;;4805358;29;19974;-48
2022/08/19 17:19:55;;;;;;;;;;;;;;;;;;4814204;29;20023;-50
2022/08/19 17:22:22;;;;;;;;;;;;;;;;;;4823907;29;19948;-45
2022/08/19 17:24:49;;;;;;;;;;;;;;;;;;4823828;29;20305;-48
2022/08/19 17:27:18;;;;;;;;;;;;;;;;;;4823584;29;19996;-49
2022/08/19 17:29:45;;;;;;;;;;;;;;;;;;4823159;29;19924;-51
2022/08/19 17:32:14;;;;;;;;;;;;;;;;;;4823479;29;19932;-47
2022/08/19 17:34:52;;;;;;;;;;;;;;;;;;4823759;29;20277;-50
2022/08/19 17:37:20;;;;;;;;;;;;;;;;;;4822513;29;19974;-48
2022/08/19 17:39:47;;;;;;;;;;;;;;;;;;4837700;29;19972;-47